createdAt,value
2019-04-04T00:00:35.690Z,97901.28
2019-04-04T00:02:43.459Z,97893.58
2019-04-04T00:04:52.486Z,97892.39
2019-04-04T00:07:01.908Z,97894.09
2019-04-04T00:09:11.017Z,97891.55
2019-04-04T00:11:18.724Z,97895.88
2019-04-04T00:13:26.420Z,97888.33
2019-04-04T00:15:34.092Z,97902.37
2019-04-04T00:17:42.631Z,97899.39
2019-04-04T00:19:51.520Z,97883.89
2019-04-04T00:22:00.263Z,97883.89
2019-04-04T00:24:09.144Z,97889.92
2019-04-04T00:26:17.551Z,97883.64
2019-04-04T00:28:25.319Z,97880.05
2019-04-04T00:30:34.209Z,97887.73
2019-04-04T00:32:42.888Z,97877.91
2019-04-04T00:34:50.605Z,97876.45
2019-04-04T00:36:58.345Z,97871.08
2019-04-04T00:39:10.025Z,97869.98
2019-04-04T00:41:17.703Z,97866.75
2019-04-04T00:43:25.443Z,97874.21
2019-04-04T00:45:34.336Z,97872.69
2019-04-04T00:47:42.078Z,97881.70
2019-04-04T00:49:49.743Z,97874.73
2019-04-04T00:51:57.584Z,97870.46
2019-04-04T00:54:05.494Z,97867.30
2019-04-04T00:56:13.263Z,97868.44
2019-04-04T00:58:21.465Z,97869.53
2019-04-04T01:00:29.209Z,97864.90
2019-04-04T01:02:36.881Z,97861.42
2019-04-04T01:04:44.587Z,97868.13
2019-04-04T01:06:52.761Z,97866.93
2019-04-04T01:09:00.767Z,97869.14
2019-04-04T01:11:10.165Z,97871.24
2019-04-04T01:13:17.838Z,97874.84
2019-04-04T01:15:26.649Z,97867.77
2019-04-04T01:17:35.050Z,97868.27
2019-04-04T01:19:43.359Z,97862.36
2019-04-04T01:21:53.179Z,97862.09
2019-04-04T01:24:00.495Z,97861.36
2019-04-04T01:26:08.455Z,97865.11
2019-04-04T01:28:16.101Z,97858.64
2019-04-04T01:30:24.863Z,97861.74
2019-04-04T01:32:32.582Z,97855.47
2019-04-04T01:34:40.558Z,97859.58
2019-04-04T01:36:48.326Z,97851.33
2019-04-04T01:39:00.157Z,97856.55
2019-04-04T01:41:08.887Z,97856.04
2019-04-04T01:43:16.583Z,97855.07
2019-04-04T01:45:25.243Z,97856.47
2019-04-04T01:47:32.917Z,97861.18
2019-04-04T01:49:40.637Z,97870.42
2019-04-04T01:51:48.305Z,97866.69
2019-04-04T01:53:55.978Z,97862.62
2019-04-04T01:56:05.852Z,97858.45
2019-04-04T01:58:13.204Z,97859.88
2019-04-04T02:00:21.112Z,97860.02
2019-04-04T02:02:28.816Z,97849.11
2019-04-04T02:04:37.513Z,97845.38
2019-04-04T02:06:45.281Z,97844.10
2019-04-04T02:08:53.038Z,97847.84
2019-04-04T02:11:00.726Z,97850.44
2019-04-04T02:13:09.959Z,97860.65
2019-04-04T02:15:17.900Z,97862.98
2019-04-04T02:17:26.763Z,97864.16
2019-04-04T02:19:34.435Z,97863.19
2019-04-04T02:21:42.139Z,97862.75
2019-04-04T02:23:49.905Z,97860.65
2019-04-04T02:25:57.654Z,97861.16
2019-04-04T02:28:06.947Z,97855.71
2019-04-04T02:30:16.725Z,97858.38
2019-04-04T02:32:26.700Z,97851.97
2019-04-04T02:34:37.862Z,97854.58
2019-04-04T02:36:48.876Z,97848.34
2019-04-04T02:39:15.776Z,97842.33
2019-04-04T02:41:23.614Z,97843.59
2019-04-04T02:43:31.284Z,97840.36
2019-04-04T02:45:39.142Z,97835.09
2019-04-04T02:47:50.298Z,97839.82
2019-04-04T02:50:00.679Z,97837.75
2019-04-04T02:52:06.885Z,97831.81
2019-04-04T02:54:15.778Z,97841.55
2019-04-04T02:56:23.611Z,97837.28
2019-04-04T02:58:31.281Z,97843.29
2019-04-04T03:00:39.045Z,97842.52
2019-04-04T03:02:46.873Z,97847.16
2019-04-04T03:04:54.613Z,97844.22
2019-04-04T03:07:02.475Z,97840.05
2019-04-04T03:09:10.619Z,97839.78
2019-04-04T03:11:21.261Z,97841.05
2019-04-04T03:13:31.294Z,97836.87
2019-04-04T03:15:41.246Z,97843.70
2019-04-04T03:17:48.657Z,97845.97
2019-04-04T03:19:56.426Z,97847.23
2019-04-04T03:22:04.098Z,97844.06
2019-04-04T03:24:11.790Z,97836.03
2019-04-04T03:26:20.547Z,97841.53
2019-04-04T03:28:31.330Z,97840.89
2019-04-04T03:30:38.182Z,97836.78
2019-04-04T03:32:51.695Z,97844.17
2019-04-04T03:34:55.436Z,97844.02
2019-04-04T03:37:06.476Z,97847.27
2019-04-04T03:39:13.632Z,97843.45
2019-04-04T03:41:22.272Z,97843.13
2019-04-04T03:43:30.086Z,97843.68
2019-04-04T03:45:37.914Z,97844.91
2019-04-04T03:47:45.572Z,97837.97
2019-04-04T03:49:56.348Z,97842.11
2019-04-04T03:52:02.721Z,97840.97
2019-04-04T03:54:15.247Z,97832.75
2019-04-04T03:56:23.018Z,97834.14
2019-04-04T03:58:30.744Z,97836.52
2019-04-04T04:00:40.355Z,97832.97
2019-04-04T04:02:50.168Z,97836.89
2019-04-04T04:05:00.529Z,97836.83
2019-04-04T04:07:07.775Z,97845.07
2019-04-04T04:09:15.638Z,97829.94
2019-04-04T04:11:24.601Z,97833.73
2019-04-04T04:13:32.371Z,97836.70
2019-04-04T04:15:40.056Z,97835.00
2019-04-04T04:17:47.737Z,97845.97
2019-04-04T04:19:55.482Z,97839.20
2019-04-04T04:22:04.298Z,97836.67
2019-04-04T04:24:12.106Z,97837.10
2019-04-04T04:26:20.026Z,97834.63
2019-04-04T04:28:27.699Z,97840.97
2019-04-04T04:30:39.389Z,97842.94
2019-04-04T04:32:45.033Z,97843.65
2019-04-04T04:34:52.775Z,97845.01
2019-04-04T04:37:00.581Z,97840.41
2019-04-04T04:39:08.238Z,97840.09
2019-04-04T04:41:20.064Z,97834.23
2019-04-04T04:43:25.239Z,97835.49
2019-04-04T04:45:33.083Z,97839.53
2019-04-04T04:47:40.851Z,97835.36
2019-04-04T04:49:48.738Z,97829.55
2019-04-04T04:51:56.410Z,97833.97
2019-04-04T04:54:04.079Z,97829.55
2019-04-04T04:56:13.056Z,97834.77
2019-04-04T04:58:20.731Z,97841.80
2019-04-04T05:00:28.508Z,97834.13
2019-04-04T05:02:36.265Z,97834.97
2019-04-04T05:04:44.162Z,97843.28
2019-04-04T05:06:51.898Z,97845.25
2019-04-04T05:08:59.612Z,97833.22
2019-04-04T05:11:07.392Z,97835.52
2019-04-04T05:13:15.168Z,97831.55
2019-04-04T05:15:22.872Z,97835.66
2019-04-04T05:17:30.539Z,97837.06
2019-04-04T05:19:39.284Z,97838.09
2019-04-04T05:21:47.054Z,97842.83
2019-04-04T05:23:54.730Z,97842.13
2019-04-04T05:26:03.198Z,97841.63
2019-04-04T05:28:11.483Z,97842.78
2019-04-04T05:30:20.458Z,97838.56
2019-04-04T05:32:28.343Z,97842.06
2019-04-04T05:34:36.131Z,97844.65
2019-04-04T05:36:44.092Z,97846.94
2019-04-04T05:38:54.786Z,97840.81
2019-04-04T05:41:02.581Z,97837.05
2019-04-04T05:43:10.257Z,97839.84
2019-04-04T05:45:18.174Z,97834.38
2019-04-04T05:47:26.048Z,97832.38
2019-04-04T05:49:33.855Z,97836.08
2019-04-04T05:51:41.670Z,97834.61
2019-04-04T05:53:49.370Z,97842.09
2019-04-04T05:55:57.375Z,97844.22
2019-04-04T05:58:05.114Z,97847.22
2019-04-04T06:00:14.307Z,97841.48
2019-04-04T06:02:22.241Z,97847.69
2019-04-04T06:04:29.914Z,97842.77
2019-04-04T06:06:37.781Z,97842.28
2019-04-04T06:08:45.481Z,97840.27
2019-04-04T06:10:53.222Z,97845.44
2019-04-04T06:13:00.925Z,97841.94
2019-04-04T06:15:08.942Z,97842.55
2019-04-04T06:17:16.747Z,97835.00
2019-04-04T06:19:24.536Z,97837.47
2019-04-04T06:21:33.083Z,97838.58
2019-04-04T06:23:40.752Z,97830.12
2019-04-04T06:25:48.514Z,97837.47
2019-04-04T06:27:56.188Z,97837.54
2019-04-04T06:30:04.994Z,97843.33
2019-04-04T06:32:14.036Z,97839.11
2019-04-04T06:34:23.973Z,97836.94
2019-04-04T06:36:30.994Z,97835.73
2019-04-04T06:38:38.684Z,97838.70
2019-04-04T06:40:46.352Z,97832.23
2019-04-04T06:42:54.033Z,97833.31
2019-04-04T06:45:01.904Z,97835.11
2019-04-04T06:47:10.762Z,97837.77
2019-04-04T06:49:18.538Z,97836.45
2019-04-04T06:51:26.374Z,97829.16
2019-04-04T06:53:34.048Z,97839.23
2019-04-04T06:55:41.822Z,97836.20
2019-04-04T06:57:51.266Z,97836.89
2019-04-04T07:00:00.366Z,97833.67
2019-04-04T07:02:08.106Z,97841.45
2019-04-04T07:04:17.389Z,97835.75
2019-04-04T07:06:25.399Z,97835.61
2019-04-04T07:08:33.136Z,97833.16
2019-04-04T07:10:42.034Z,97831.73
2019-04-04T07:12:49.812Z,97831.89
2019-04-04T07:14:57.602Z,97834.17
2019-04-04T07:17:08.288Z,97831.74
2019-04-04T07:19:15.178Z,97837.16
2019-04-04T07:21:23.086Z,97831.39
2019-04-04T07:23:30.863Z,97824.02
2019-04-04T07:25:39.875Z,97825.84
2019-04-04T07:27:48.074Z,97827.95
2019-04-04T07:29:56.916Z,97824.73
2019-04-04T07:32:05.134Z,97817.53
2019-04-04T07:34:13.738Z,97817.23
2019-04-04T07:36:21.909Z,97813.09
2019-04-04T07:38:30.782Z,97814.25
2019-04-04T07:40:38.596Z,97813.78
2019-04-04T07:42:47.926Z,97819.52
2019-04-04T07:44:55.961Z,97810.78
2019-04-04T07:47:04.788Z,97810.03
2019-04-04T07:49:12.507Z,97809.05
2019-04-04T07:51:21.271Z,97805.97
2019-04-04T07:53:30.031Z,97806.23
2019-04-04T07:55:37.893Z,97815.73
2019-04-04T07:57:45.658Z,97817.64
2019-04-04T07:59:54.482Z,97823.25
2019-04-04T08:02:02.300Z,97821.52
2019-04-04T08:04:09.988Z,97827.33
2019-04-04T08:06:17.678Z,97823.95
2019-04-04T08:08:25.503Z,97824.27
2019-04-04T08:10:34.433Z,97823.75
2019-04-04T08:12:42.362Z,97817.61
2019-04-04T08:14:50.419Z,97821.19
2019-04-04T08:16:59.484Z,97819.95
2019-04-04T08:19:07.385Z,97820.92
2019-04-04T08:21:15.263Z,97812.31
2019-04-04T08:23:24.027Z,97816.22
2019-04-04T08:25:31.821Z,97817.98
2019-04-04T08:27:39.668Z,97821.06
2019-04-04T08:29:47.360Z,97820.03
2019-04-04T08:31:55.083Z,97812.94
2019-04-04T08:34:02.917Z,97811.81
2019-04-04T08:36:10.616Z,97806.94
2019-04-04T08:38:18.309Z,97802.29
2019-04-04T08:40:26.195Z,97804.16
2019-04-04T08:42:33.982Z,97796.67
2019-04-04T08:44:42.067Z,97791.20
2019-04-04T08:46:50.951Z,97793.54
2019-04-04T08:48:58.714Z,97786.50
2019-04-04T08:51:06.649Z,97794.47
2019-04-04T08:53:14.370Z,97801.12
2019-04-04T08:55:22.189Z,97794.23
2019-04-04T08:57:29.878Z,97806.48
2019-04-04T08:59:37.785Z,97801.47
2019-04-04T09:01:46.706Z,97807.90
2019-04-04T09:03:54.390Z,97804.26
2019-04-04T09:06:02.211Z,97804.02
2019-04-04T09:08:10.090Z,97793.83
2019-04-04T09:10:18.088Z,97792.51
2019-04-04T09:12:25.724Z,97783.77
2019-04-04T09:14:33.485Z,97791.44
2019-04-04T09:16:41.339Z,97790.72
2019-04-04T09:18:49.142Z,97784.72
2019-04-04T09:20:56.834Z,97791.73
2019-04-04T09:23:04.593Z,97785.41
2019-04-04T09:25:13.747Z,97784.33
2019-04-04T09:27:21.610Z,97784.19
2019-04-04T09:29:29.403Z,97778.44
2019-04-04T09:31:37.219Z,97780.56
2019-04-04T09:33:44.813Z,97778.34
2019-04-04T09:35:52.602Z,97782.27
2019-04-04T09:38:01.400Z,97777.30
2019-04-04T09:40:09.995Z,97776.17
2019-04-04T09:42:17.760Z,97779.52
2019-04-04T09:44:25.479Z,97774.22
2019-04-04T09:46:33.266Z,97769.42
2019-04-04T09:48:41.048Z,97779.67
2019-04-04T09:50:48.763Z,97777.34
2019-04-04T09:52:56.520Z,97779.14
2019-04-04T09:55:05.958Z,97778.92
2019-04-04T09:57:14.939Z,97773.38
2019-04-04T09:59:22.623Z,97773.42
2019-04-04T10:01:30.309Z,97764.83
2019-04-04T10:03:38.124Z,97755.70
2019-04-04T10:05:46.017Z,97762.29
2019-04-04T10:07:53.806Z,97751.58
2019-04-04T10:10:03.152Z,97753.61
2019-04-04T10:12:10.805Z,97748.67
2019-04-04T10:14:18.497Z,97746.36
2019-04-04T10:16:26.382Z,97749.69
2019-04-04T10:18:34.071Z,97742.27
2019-04-04T10:20:41.765Z,97744.30
2019-04-04T10:22:49.492Z,97741.62
2019-04-04T10:24:57.179Z,97741.09
2019-04-04T10:27:05.331Z,97738.84
2019-04-04T10:29:13.218Z,97742.02
2019-04-04T10:31:21.004Z,97744.07
2019-04-04T10:33:28.794Z,97736.38
2019-04-04T10:35:36.536Z,97734.73
2019-04-04T10:37:44.522Z,97731.22
2019-04-04T10:39:52.381Z,97730.59
2019-04-04T10:42:00.109Z,97733.80
2019-04-04T10:44:07.870Z,97723.04
2019-04-04T10:46:15.757Z,97719.09
2019-04-04T10:48:23.486Z,97717.40
2019-04-04T10:50:31.354Z,97717.44
2019-04-04T10:52:40.775Z,97708.56
2019-04-04T10:54:48.508Z,97715.81
2019-04-04T10:56:56.195Z,97705.78
2019-04-04T10:59:03.893Z,97710.48
2019-04-04T11:01:11.612Z,97708.55
2019-04-04T11:03:19.299Z,97695.83
2019-04-04T11:05:27.222Z,97688.53
2019-04-04T11:07:35.777Z,97690.03
2019-04-04T11:09:43.610Z,97656.55
2019-04-04T11:11:51.295Z,97687.82
2019-04-04T11:13:59.115Z,97693.33
2019-04-04T11:16:06.959Z,97688.16
2019-04-04T11:18:14.784Z,97692.39
2019-04-04T11:20:22.465Z,97683.09
2019-04-04T11:22:30.627Z,97685.03
2019-04-04T11:24:38.411Z,97686.56
2019-04-04T11:26:46.239Z,97680.48
2019-04-04T11:28:54.202Z,97675.92
2019-04-04T11:31:01.874Z,97670.48
2019-04-04T11:33:09.588Z,97675.61
2019-04-04T11:35:17.347Z,97690.31
2019-04-04T11:37:25.106Z,97676.00
2019-04-04T11:39:33.005Z,97669.23
2019-04-04T11:41:40.690Z,97674.43
2019-04-04T11:43:48.491Z,97670.77
2019-04-04T11:45:56.301Z,97667.22
2019-04-04T11:48:03.991Z,97665.36
2019-04-04T11:50:12.227Z,97671.46
2019-04-04T11:52:21.221Z,97654.24
2019-04-04T11:54:28.912Z,97662.03
2019-04-04T11:56:36.611Z,97657.08
2019-04-04T11:58:44.739Z,97656.14
2019-04-04T12:00:57.062Z,97648.95
2019-04-04T12:03:04.826Z,97651.97
2019-04-04T12:05:12.782Z,97644.20
2019-04-04T12:07:20.585Z,97646.47
2019-04-04T12:09:29.443Z,97648.03
2019-04-04T12:11:37.628Z,97648.88
2019-04-04T12:13:45.488Z,97652.83
2019-04-04T12:15:53.178Z,97647.98
2019-04-04T12:18:01.021Z,97647.32
2019-04-04T12:20:09.619Z,97646.44
2019-04-04T12:22:17.471Z,97643.39
2019-04-04T12:24:25.217Z,97642.05
2019-04-04T12:26:33.002Z,97640.16
2019-04-04T12:28:40.702Z,97629.13
2019-04-04T12:30:49.608Z,97620.78
2019-04-04T12:32:57.304Z,97618.28
2019-04-04T12:35:06.102Z,97625.11
2019-04-04T12:37:13.887Z,97629.19
2019-04-04T12:39:21.579Z,97626.17
2019-04-04T12:41:29.279Z,97615.53
2019-04-04T12:43:36.984Z,97612.31
2019-04-04T12:45:45.009Z,97599.70
2019-04-04T12:47:52.926Z,97617.65
2019-04-04T12:50:00.745Z,97612.06
2019-04-04T12:52:08.741Z,97611.12
2019-04-04T12:54:17.602Z,97610.50
2019-04-04T12:56:26.495Z,97610.77
2019-04-04T12:58:34.282Z,97614.86
2019-04-04T13:00:41.978Z,97607.13
2019-04-04T13:02:50.879Z,97591.89
2019-04-04T13:04:59.754Z,97593.10
2019-04-04T13:07:07.582Z,97590.08
2019-04-04T13:09:15.318Z,97589.00
2019-04-04T13:11:24.205Z,97592.70
2019-04-04T13:13:31.994Z,97581.73
2019-04-04T13:15:39.732Z,97586.06
2019-04-04T13:17:47.447Z,97587.73
2019-04-04T13:19:55.176Z,97588.88
2019-04-04T13:22:03.121Z,97588.53
2019-04-04T13:24:10.905Z,97574.48
2019-04-04T13:26:18.743Z,97577.08
2019-04-04T13:28:26.639Z,97567.91
2019-04-04T13:30:36.591Z,97586.91
2019-04-04T13:32:44.617Z,97581.66
2019-04-04T13:34:59.091Z,97564.53
2019-04-04T13:37:01.794Z,97575.41
2019-04-04T13:39:11.195Z,97570.37
2019-04-04T13:41:22.252Z,97567.78
2019-04-04T13:43:29.380Z,97574.08
2019-04-04T13:45:37.046Z,97566.27
2019-04-04T13:47:44.956Z,97574.87
2019-04-04T13:49:52.647Z,97566.93
2019-04-04T13:52:00.493Z,97566.42
2019-04-04T13:54:08.351Z,97568.00
2019-04-04T13:56:16.156Z,97567.06
2019-04-04T13:58:23.950Z,97563.10
2019-04-04T14:00:31.851Z,97565.12
2019-04-04T14:02:40.007Z,97563.48
2019-04-04T14:04:47.865Z,97563.05
2019-04-04T14:06:55.576Z,97564.84
2019-04-04T14:09:03.269Z,97568.13
2019-04-04T14:11:12.221Z,97562.06
2019-04-04T14:13:19.941Z,97552.77
2019-04-04T14:15:27.725Z,97564.97
2019-04-04T14:17:35.484Z,97563.61
2019-04-04T14:19:43.369Z,97562.82
2019-04-04T14:21:51.118Z,97554.12
2019-04-04T14:24:12.068Z,97552.58
2019-04-04T14:26:08.265Z,97556.74
2019-04-04T14:28:15.934Z,97554.09
2019-04-04T14:30:24.158Z,97560.19
2019-04-04T14:32:31.979Z,97549.88
2019-04-04T14:34:39.770Z,97553.53
2019-04-04T14:36:47.659Z,97547.13
2019-04-04T14:38:55.579Z,97544.34
2019-04-04T14:41:11.184Z,97547.48
2019-04-04T14:43:12.779Z,97541.08
2019-04-04T14:45:20.590Z,97546.22
2019-04-04T14:47:28.381Z,97539.65
2019-04-04T14:49:36.172Z,97543.38
2019-04-04T14:51:44.069Z,97540.44
2019-04-04T14:53:51.768Z,97551.05
2019-04-04T14:55:59.465Z,97539.86
2019-04-04T14:58:07.356Z,97540.84
2019-04-04T15:00:17.041Z,97546.81
2019-04-04T15:02:24.734Z,97544.77
2019-04-04T15:04:32.374Z,97538.14
2019-04-04T15:06:41.645Z,97546.22
2019-04-04T15:08:49.399Z,97547.20
2019-04-04T15:10:57.187Z,97534.92
2019-04-04T15:13:04.980Z,97541.05
2019-04-04T15:15:13.111Z,97542.23
2019-04-04T15:17:20.949Z,97547.78
2019-04-04T15:19:28.631Z,97544.37
2019-04-04T15:21:36.398Z,97548.20
2019-04-04T15:23:44.306Z,97546.21
2019-04-04T15:25:51.997Z,97543.02
2019-04-04T15:27:59.888Z,97546.55
2019-04-04T15:30:09.803Z,97544.68
2019-04-04T15:32:18.735Z,97539.77
2019-04-04T15:34:26.446Z,97541.71
2019-04-04T15:36:34.272Z,97537.75
2019-04-04T15:38:42.055Z,97536.02
2019-04-04T15:40:49.847Z,97545.41
2019-04-04T15:42:57.668Z,97538.05
2019-04-04T15:45:07.536Z,97543.53
2019-04-04T15:47:16.258Z,97526.34
2019-04-04T15:49:24.057Z,97539.78
2019-04-04T15:51:31.748Z,97536.12
2019-04-04T15:53:39.509Z,97536.64
2019-04-04T15:55:47.323Z,97536.88
2019-04-04T15:57:55.017Z,97541.67
2019-04-04T16:00:02.974Z,97543.04
2019-04-04T16:02:12.066Z,97539.08
2019-04-04T16:04:20.939Z,97543.07
2019-04-04T16:06:28.728Z,97537.80
2019-04-04T16:08:36.562Z,97535.16
2019-04-04T16:10:45.446Z,97537.59
2019-04-04T16:12:53.229Z,97537.38
2019-04-04T16:15:01.043Z,97539.44
2019-04-04T16:17:08.998Z,97541.80
2019-04-04T16:19:16.692Z,97548.11
2019-04-04T16:21:24.561Z,97544.16
2019-04-04T16:23:32.331Z,97550.12
2019-04-04T16:25:40.118Z,97548.30
2019-04-04T16:27:48.079Z,97542.31
2019-04-04T16:29:55.983Z,97548.92
2019-04-04T16:32:03.683Z,97547.02
2019-04-04T16:34:11.762Z,97554.28
2019-04-04T16:36:19.450Z,97547.97
2019-04-04T16:38:27.247Z,97546.90
2019-04-04T16:40:34.963Z,97548.70
2019-04-04T16:42:42.659Z,97551.17
2019-04-04T16:44:51.530Z,97551.72
2019-04-04T16:46:59.336Z,97561.78
2019-04-04T16:49:07.196Z,97550.05
2019-04-04T16:51:14.971Z,97548.10
2019-04-04T16:53:22.700Z,97557.92
2019-04-04T16:55:31.390Z,97561.31
2019-04-04T16:57:39.079Z,97562.02
2019-04-04T17:02:32.970Z,97572.20
2019-04-04T17:04:40.765Z,97574.68
2019-04-04T17:06:48.580Z,97566.20
2019-04-04T17:08:56.395Z,97562.85
2019-04-04T17:11:04.402Z,97566.67
2019-04-04T17:13:12.373Z,97572.25
2019-04-04T17:15:20.233Z,97578.28
2019-04-04T17:17:27.951Z,97579.25
2019-04-04T17:19:35.635Z,97577.41
2019-04-04T17:21:43.475Z,97585.22
2019-04-04T17:23:51.355Z,97583.15
2019-04-04T17:25:59.063Z,97588.02
2019-04-04T17:28:07.178Z,97580.33
2019-04-04T17:30:16.045Z,97582.94
2019-04-04T17:32:24.621Z,97581.95
2019-04-04T17:34:32.953Z,97589.12
2019-04-04T17:36:41.403Z,97589.39
2019-04-04T17:38:49.250Z,97597.64
2019-04-04T17:40:57.181Z,97596.95
2019-04-04T17:43:05.037Z,97600.37
2019-04-04T17:45:13.747Z,97600.87
2019-04-04T17:47:21.718Z,97604.62
2019-04-04T17:49:29.570Z,97603.99
2019-04-04T17:51:37.642Z,97606.20
2019-04-04T17:53:45.694Z,97609.53
2019-04-04T17:55:54.880Z,97609.16
2019-04-04T17:58:04.557Z,97605.42
2019-04-04T18:00:13.624Z,97610.73
2019-04-04T18:02:21.933Z,97616.39
2019-04-04T18:04:29.747Z,97621.55
2019-04-04T18:06:37.495Z,97625.89
2019-04-04T18:08:45.198Z,97628.63
2019-04-04T18:10:52.870Z,97631.68
2019-04-04T18:13:02.242Z,97627.96
2019-04-04T18:15:10.919Z,97630.41
2019-04-04T18:17:18.682Z,97636.39
2019-04-04T18:19:26.574Z,97638.30
2019-04-04T18:21:34.273Z,97649.18
2019-04-04T18:23:43.096Z,97648.97
2019-04-04T18:25:50.935Z,97652.70
2019-04-04T18:27:59.225Z,97650.50
2019-04-04T18:30:12.957Z,97660.44
2019-04-04T18:32:20.983Z,97663.45
2019-04-04T18:34:29.230Z,97663.45
2019-04-04T18:36:37.066Z,97666.34
2019-04-04T18:38:45.097Z,97666.09
2019-04-04T18:40:52.896Z,97674.20
2019-04-04T18:43:01.849Z,97677.47
2019-04-04T18:45:10.753Z,97672.62
2019-04-04T18:47:18.457Z,97677.05
2019-04-04T18:49:26.405Z,97684.00
2019-04-04T18:51:34.089Z,97678.84
2019-04-04T18:53:41.955Z,97679.41
2019-04-04T18:55:49.844Z,97678.41
2019-04-04T18:57:57.658Z,97688.02
2019-04-04T19:00:09.643Z,97690.20
2019-04-04T19:02:17.550Z,97684.77
2019-04-04T19:04:26.473Z,97692.03
2019-04-04T19:06:34.747Z,97682.79
2019-04-04T19:08:42.456Z,97693.21
2019-04-04T19:10:50.199Z,97691.05
2019-04-04T19:13:05.359Z,97690.00
2019-04-04T19:15:09.030Z,97689.04
2019-04-04T19:17:17.943Z,97687.98
2019-04-04T19:19:25.814Z,97687.60
2019-04-04T19:21:33.687Z,97691.09
2019-04-04T19:23:49.268Z,97690.80
2019-04-04T19:25:51.120Z,97692.37
2019-04-04T19:27:58.989Z,97696.03
2019-04-04T19:30:10.628Z,97691.47
2019-04-04T19:32:18.400Z,97690.38
2019-04-04T19:34:26.279Z,97695.77
2019-04-04T19:36:34.005Z,97689.81
2019-04-04T19:38:41.971Z,97693.31
2019-04-04T19:40:49.680Z,97690.69
2019-04-04T19:42:57.477Z,97692.08
2019-04-04T19:45:08.561Z,97698.48
2019-04-04T19:47:16.500Z,97701.25
2019-04-04T19:49:24.243Z,97696.31
2019-04-04T19:51:32.247Z,97699.80
2019-04-04T19:53:40.116Z,97692.23
2019-04-04T19:55:47.843Z,97698.78
2019-04-04T19:57:55.557Z,97699.23
2019-04-04T20:00:05.332Z,97703.48
2019-04-04T20:02:13.298Z,97704.91
2019-04-04T20:04:21.303Z,97700.41
2019-04-04T20:06:29.270Z,97706.81
2019-04-04T20:08:37.023Z,97700.76
2019-04-04T20:10:45.130Z,97697.95
2019-04-04T20:12:52.839Z,97700.90
2019-04-04T20:15:00.842Z,97710.51
2019-04-04T20:17:09.701Z,97710.27
2019-04-04T20:19:17.404Z,97706.05
2019-04-04T20:21:25.287Z,97703.94
2019-04-04T20:23:33.064Z,97708.71
2019-04-04T20:25:40.795Z,97713.58
2019-04-04T20:27:54.463Z,97703.17
2019-04-04T20:29:58.059Z,97708.11
2019-04-04T20:32:06.900Z,97704.58
2019-04-04T20:34:14.619Z,97708.45
2019-04-04T20:36:22.615Z,97715.73
2019-04-04T20:38:30.318Z,97718.97
2019-04-04T20:40:38.188Z,97722.34
2019-04-04T20:42:45.959Z,97717.19
2019-04-04T20:44:53.785Z,97714.35
2019-04-04T20:47:01.694Z,97716.08
2019-04-04T20:49:09.551Z,97725.50
2019-04-04T20:51:17.364Z,97726.60
2019-04-04T20:53:26.650Z,97734.27
2019-04-04T20:55:34.389Z,97734.72
2019-04-04T20:57:42.070Z,97735.84
2019-04-04T20:59:49.909Z,97738.40
2019-04-04T21:01:57.666Z,97739.05
2019-04-04T21:04:05.624Z,97741.31
2019-04-04T21:06:13.547Z,97733.47
2019-04-04T21:08:21.555Z,97740.98
2019-04-04T21:10:29.342Z,97743.70
2019-04-04T21:12:37.128Z,97743.55
2019-04-04T21:14:44.932Z,97745.02
2019-04-04T21:16:52.623Z,97746.01
2019-04-04T21:19:00.429Z,97746.30
2019-04-04T21:21:08.172Z,97751.76
2019-04-04T21:23:15.860Z,97751.41
2019-04-04T21:25:23.583Z,97753.13
2019-04-04T21:27:31.264Z,97752.68
2019-04-04T21:29:39.104Z,97752.58
2019-04-04T21:31:46.923Z,97754.59
2019-04-04T21:33:54.716Z,97759.23
2019-04-04T21:36:02.510Z,97762.42
2019-04-04T21:38:10.320Z,97761.55
2019-04-04T21:40:18.151Z,97767.28
2019-04-04T21:42:27.088Z,97764.56
2019-04-04T21:44:34.894Z,97764.90
2019-04-04T21:46:42.667Z,97766.00
2019-04-04T21:48:51.509Z,97764.52
2019-04-04T21:50:59.317Z,97766.78
2019-04-04T21:53:06.988Z,97759.41
2019-04-04T21:55:14.810Z,97761.22
2019-04-04T21:57:22.612Z,97768.30
2019-04-04T21:59:30.460Z,97768.75
2019-04-04T22:01:38.139Z,97768.30
2019-04-04T22:03:45.910Z,97772.22
2019-04-04T22:05:53.754Z,97775.75
2019-04-04T22:08:01.595Z,97773.03
2019-04-04T22:10:09.860Z,97773.03
2019-04-04T22:12:17.612Z,97770.48
2019-04-04T22:14:25.559Z,97767.72
2019-04-04T22:16:33.263Z,97770.54
2019-04-04T22:18:41.056Z,97772.80
2019-04-04T22:20:48.731Z,97771.78
2019-04-04T22:22:56.439Z,97776.32
2019-04-04T22:25:06.123Z,97771.45
2019-04-04T22:27:13.872Z,97772.64
2019-04-04T22:29:21.604Z,97779.20
2019-04-04T22:31:30.465Z,97769.31
2019-04-04T22:33:38.160Z,97773.22
2019-04-04T22:35:47.049Z,97772.83
2019-04-04T22:37:54.794Z,97775.73
2019-04-04T22:40:02.468Z,97780.83
2019-04-04T22:42:10.181Z,97777.89
2019-04-04T22:44:17.855Z,97784.17
2019-04-04T22:46:25.641Z,97778.45
2019-04-04T22:48:33.450Z,97782.63
2019-04-04T22:50:42.376Z,97781.44
2019-04-04T22:52:50.056Z,97782.89
2019-04-04T22:54:57.820Z,97780.04
2019-04-04T22:57:05.703Z,97788.38
2019-04-04T22:59:13.450Z,97783.07
2019-04-04T23:01:21.274Z,97784.60
2019-04-04T23:03:29.728Z,97782.31
2019-04-04T23:05:38.607Z,97787.02
2019-04-04T23:07:46.231Z,97791.00
2019-04-04T23:09:53.911Z,97782.70
2019-04-04T23:12:01.583Z,97776.33
2019-04-04T23:14:09.474Z,97785.25
2019-04-04T23:16:17.143Z,97777.78
2019-04-04T23:18:24.929Z,97784.67
2019-04-04T23:20:32.724Z,97786.83
2019-04-04T23:22:52.278Z,97782.73
2019-04-04T23:24:49.773Z,97779.00
2019-04-04T23:26:57.602Z,97784.31
2019-04-04T23:29:05.372Z,97784.31
2019-04-04T23:31:13.142Z,97781.41
2019-04-04T23:33:20.944Z,97780.58
2019-04-04T23:35:28.720Z,97781.09
2019-04-04T23:37:36.681Z,97786.66
2019-04-04T23:39:44.554Z,97785.09
2019-04-04T23:41:52.345Z,97778.53
2019-04-04T23:44:01.210Z,97788.71
2019-04-04T23:46:08.916Z,97781.13
2019-04-04T23:48:17.947Z,97784.95
2019-04-04T23:50:25.619Z,97782.56
2019-04-04T23:52:33.441Z,97780.94
2019-04-04T23:54:41.114Z,97784.52
2019-04-04T23:56:48.796Z,97783.77
2019-04-04T23:58:56.660Z,97786.92
